sensor_id;sensor_type;location;lat;lon;timestamp;P1;durP1;ratioP1;P2;durP2;ratioP2
6426;SDS011;3246;42.664;23.308;2022-12-18T00:01:36;6.93;;;5.87;;
6426;SDS011;3246;42.664;23.308;2022-12-18T00:04:03;7.23;;;6.47;;
6426;SDS011;3246;42.664;23.308;2022-12-18T00:06:30;5.83;;;5.00;;
6426;SDS011;3246;42.664;23.308;2022-12-18T00:08:58;7.23;;;5.57;;
6426;SDS011;3246;42.664;23.308;2022-12-18T00:11:26;6.57;;;5.97;;
6426;SDS011;3246;42.664;23.308;2022-12-18T00:13:55;8.43;;;5.53;;
6426;SDS011;3246;42.664;23.308;2022-12-18T00:16:22;6.00;;;5.43;;
6426;SDS011;3246;42.664;23.308;2022-12-18T00:18:50;8.23;;;6.50;;
6426;SDS011;3246;42.664;23.308;2022-12-18T00:21:18;7.23;;;5.57;;
6426;SDS011;3246;42.664;23.308;2022-12-18T00:23:45;8.30;;;7.50;;
6426;SDS011;3246;42.664;23.308;2022-12-18T00:26:14;5.57;;;5.07;;
6426;SDS011;3246;42.664;23.308;2022-12-18T00:28:41;8.97;;;7.80;;
6426;SDS011;3246;42.664;23.308;2022-12-18T00:31:09;8.03;;;7.23;;
6426;SDS011;3246;42.664;23.308;2022-12-18T00:33:36;8.17;;;6.97;;
6426;SDS011;3246;42.664;23.308;2022-12-18T00:36:03;6.23;;;5.67;;
6426;SDS011;3246;42.664;23.308;2022-12-18T00:38:29;6.53;;;6.00;;
6426;SDS011;3246;42.664;23.308;2022-12-18T00:40:56;7.50;;;6.33;;
6426;SDS011;3246;42.664;23.308;2022-12-18T00:43:22;8.87;;;5.77;;
6426;SDS011;3246;42.664;23.308;2022-12-18T00:45:48;7.10;;;6.27;;
6426;SDS011;3246;42.664;23.308;2022-12-18T00:48:16;5.43;;;4.90;;
6426;SDS011;3246;42.664;23.308;2022-12-18T00:50:42;8.57;;;6.47;;
6426;SDS011;3246;42.664;23.308;2022-12-18T00:53:09;9.20;;;6.47;;
6426;SDS011;3246;42.664;23.308;2022-12-18T00:55:37;7.20;;;6.50;;
6426;SDS011;3246;42.664;23.308;2022-12-18T00:58:03;8.37;;;7.40;;
6426;SDS011;3246;42.664;23.308;2022-12-18T01:00:30;7.70;;;6.07;;
6426;SDS011;3246;42.664;23.308;2022-12-18T01:02:56;6.65;;;5.80;;
6426;SDS011;3246;42.664;23.308;2022-12-18T01:05:25;8.40;;;7.07;;
6426;SDS011;3246;42.664;23.308;2022-12-18T01:07:51;8.70;;;6.47;;
6426;SDS011;3246;42.664;23.308;2022-12-18T01:10:18;7.30;;;5.90;;
6426;SDS011;3246;42.664;23.308;2022-12-18T01:12:44;7.63;;;6.33;;
6426;SDS011;3246;42.664;23.308;2022-12-18T01:15:11;6.20;;;5.47;;
6426;SDS011;3246;42.664;23.308;2022-12-18T01:17:39;6.13;;;5.27;;
6426;SDS011;3246;42.664;23.308;2022-12-18T01:20:06;9.47;;;7.77;;
6426;SDS011;3246;42.664;23.308;2022-12-18T01:22:35;7.40;;;6.27;;
6426;SDS011;3246;42.664;23.308;2022-12-18T01:25:01;10.97;;;6.73;;
6426;SDS011;3246;42.664;23.308;2022-12-18T01:27:28;7.57;;;6.60;;
6426;SDS011;3246;42.664;23.308;2022-12-18T01:29:55;10.50;;;7.67;;
6426;SDS011;3246;42.664;23.308;2022-12-18T01:32:21;6.60;;;5.40;;
6426;SDS011;3246;42.664;23.308;2022-12-18T01:34:48;7.20;;;6.20;;
6426;SDS011;3246;42.664;23.308;2022-12-18T01:37:15;8.83;;;7.47;;
6426;SDS011;3246;42.664;23.308;2022-12-18T01:39:42;11.83;;;7.43;;
6426;SDS011;3246;42.664;23.308;2022-12-18T01:42:09;10.53;;;8.40;;
6426;SDS011;3246;42.664;23.308;2022-12-18T01:47:29;7.83;;;6.20;;
6426;SDS011;3246;42.664;23.308;2022-12-18T01:49:57;6.83;;;6.17;;
6426;SDS011;3246;42.664;23.308;2022-12-18T01:52:24;9.60;;;7.67;;
6426;SDS011;3246;42.664;23.308;2022-12-18T01:54:52;7.83;;;6.17;;
6426;SDS011;3246;42.664;23.308;2022-12-18T01:57:19;9.47;;;6.80;;
6426;SDS011;3246;42.664;23.308;2022-12-18T01:59:46;10.97;;;8.57;;
6426;SDS011;3246;42.664;23.308;2022-12-18T02:02:14;7.50;;;6.10;;
6426;SDS011;3246;42.664;23.308;2022-12-18T02:04:41;10.47;;;7.63;;
6426;SDS011;3246;42.664;23.308;2022-12-18T02:07:10;10.03;;;7.53;;
6426;SDS011;3246;42.664;23.308;2022-12-18T02:09:39;8.57;;;6.53;;
6426;SDS011;3246;42.664;23.308;2022-12-18T02:12:13;11.13;;;6.37;;
6426;SDS011;3246;42.664;23.308;2022-12-18T02:14:43;7.87;;;6.70;;
6426;SDS011;3246;42.664;23.308;2022-12-18T02:17:11;9.10;;;7.47;;
6426;SDS011;3246;42.664;23.308;2022-12-18T02:19:46;8.43;;;6.23;;
6426;SDS011;3246;42.664;23.308;2022-12-18T02:22:25;7.40;;;5.57;;
6426;SDS011;3246;42.664;23.308;2022-12-18T02:24:55;10.20;;;7.83;;
6426;SDS011;3246;42.664;23.308;2022-12-18T02:27:25;10.53;;;6.97;;
6426;SDS011;3246;42.664;23.308;2022-12-18T02:29:52;10.87;;;7.10;;
6426;SDS011;3246;42.664;23.308;2022-12-18T02:32:21;8.03;;;6.70;;
6426;SDS011;3246;42.664;23.308;2022-12-18T02:34:50;7.43;;;6.73;;
6426;SDS011;3246;42.664;23.308;2022-12-18T02:37:17;6.73;;;5.97;;
6426;SDS011;3246;42.664;23.308;2022-12-18T02:39:45;7.07;;;6.33;;
6426;SDS011;3246;42.664;23.308;2022-12-18T02:42:13;10.57;;;7.67;;
6426;SDS011;3246;42.664;23.308;2022-12-18T02:44:44;8.60;;;7.37;;
6426;SDS011;3246;42.664;23.308;2022-12-18T02:47:11;8.43;;;5.73;;
6426;SDS011;3246;42.664;23.308;2022-12-18T02:49:40;7.53;;;6.73;;
6426;SDS011;3246;42.664;23.308;2022-12-18T02:52:10;8.90;;;6.83;;
6426;SDS011;3246;42.664;23.308;2022-12-18T02:54:55;10.63;;;7.73;;
6426;SDS011;3246;42.664;23.308;2022-12-18T02:57:24;12.40;;;8.30;;
6426;SDS011;3246;42.664;23.308;2022-12-18T02:59:58;10.30;;;7.73;;
6426;SDS011;3246;42.664;23.308;2022-12-18T03:02:28;9.60;;;7.27;;
6426;SDS011;3246;42.664;23.308;2022-12-18T03:04:58;6.27;;;5.57;;
6426;SDS011;3246;42.664;23.308;2022-12-18T03:07:27;8.27;;;7.47;;
6426;SDS011;3246;42.664;23.308;2022-12-18T03:09:54;9.97;;;7.50;;
6426;SDS011;3246;42.664;23.308;2022-12-18T03:12:22;9.97;;;5.73;;
6426;SDS011;3246;42.664;23.308;2022-12-18T03:14:52;7.77;;;7.00;;
6426;SDS011;3246;42.664;23.308;2022-12-18T03:17:22;9.83;;;6.47;;
6426;SDS011;3246;42.664;23.308;2022-12-18T03:19:49;7.77;;;6.97;;
6426;SDS011;3246;42.664;23.308;2022-12-18T03:22:16;8.00;;;6.60;;
6426;SDS011;3246;42.664;23.308;2022-12-18T03:24:42;13.00;;;7.40;;
6426;SDS011;3246;42.664;23.308;2022-12-18T03:27:09;10.03;;;7.43;;
6426;SDS011;3246;42.664;23.308;2022-12-18T03:29:38;6.43;;;5.80;;
6426;SDS011;3246;42.664;23.308;2022-12-18T03:32:07;7.50;;;6.77;;
6426;SDS011;3246;42.664;23.308;2022-12-18T03:34:37;7.37;;;6.10;;
6426;SDS011;3246;42.664;23.308;2022-12-18T03:37:05;12.30;;;7.27;;
6426;SDS011;3246;42.664;23.308;2022-12-18T03:39:32;9.33;;;7.10;;
6426;SDS011;3246;42.664;23.308;2022-12-18T03:42:00;7.37;;;6.03;;
6426;SDS011;3246;42.664;23.308;2022-12-18T03:44:28;7.87;;;6.33;;
6426;SDS011;3246;42.664;23.308;2022-12-18T03:46:57;6.00;;;5.40;;
6426;SDS011;3246;42.664;23.308;2022-12-18T03:49:25;8.47;;;7.17;;
6426;SDS011;3246;42.664;23.308;2022-12-18T03:51:57;8.93;;;6.67;;
6426;SDS011;3246;42.664;23.308;2022-12-18T03:54:26;8.10;;;6.57;;
6426;SDS011;3246;42.664;23.308;2022-12-18T03:56:54;11.70;;;8.00;;
6426;SDS011;3246;42.664;23.308;2022-12-18T03:59:23;6.50;;;5.40;;
6426;SDS011;3246;42.664;23.308;2022-12-18T04:01:50;7.90;;;7.00;;
6426;SDS011;3246;42.664;23.308;2022-12-18T04:04:18;8.73;;;6.43;;
6426;SDS011;3246;42.664;23.308;2022-12-18T04:06:45;9.20;;;7.27;;
6426;SDS011;3246;42.664;23.308;2022-12-18T04:09:14;10.93;;;7.77;;
6426;SDS011;3246;42.664;23.308;2022-12-18T04:11:41;10.10;;;8.13;;
6426;SDS011;3246;42.664;23.308;2022-12-18T04:14:09;6.83;;;6.07;;
6426;SDS011;3246;42.664;23.308;2022-12-18T04:16:35;8.00;;;5.90;;
6426;SDS011;3246;42.664;23.308;2022-12-18T04:19:02;9.57;;;7.63;;
6426;SDS011;3246;42.664;23.308;2022-12-18T04:21:28;8.90;;;7.53;;
6426;SDS011;3246;42.664;23.308;2022-12-18T04:23:55;9.73;;;8.43;;
6426;SDS011;3246;42.664;23.308;2022-12-18T04:26:23;12.53;;;8.93;;
6426;SDS011;3246;42.664;23.308;2022-12-18T04:28:49;11.17;;;7.47;;
6426;SDS011;3246;42.664;23.308;2022-12-18T04:31:15;12.80;;;8.37;;
6426;SDS011;3246;42.664;23.308;2022-12-18T04:33:42;11.17;;;7.83;;
6426;SDS011;3246;42.664;23.308;2022-12-18T04:36:08;9.70;;;8.03;;
6426;SDS011;3246;42.664;23.308;2022-12-18T04:38:37;12.00;;;8.23;;
6426;SDS011;3246;42.664;23.308;2022-12-18T04:41:04;10.93;;;8.33;;
6426;SDS011;3246;42.664;23.308;2022-12-18T04:43:31;13.63;;;9.07;;
6426;SDS011;3246;42.664;23.308;2022-12-18T04:46:02;10.43;;;8.50;;
6426;SDS011;3246;42.664;23.308;2022-12-18T04:48:29;13.90;;;9.47;;
6426;SDS011;3246;42.664;23.308;2022-12-18T04:50:56;9.83;;;7.50;;
6426;SDS011;3246;42.664;23.308;2022-12-18T04:53:22;8.50;;;6.10;;
6426;SDS011;3246;42.664;23.308;2022-12-18T04:55:49;9.33;;;7.83;;
6426;SDS011;3246;42.664;23.308;2022-12-18T04:58:15;17.03;;;10.73;;
6426;SDS011;3246;42.664;23.308;2022-12-18T05:00:43;14.33;;;10.83;;
6426;SDS011;3246;42.664;23.308;2022-12-18T05:03:09;12.53;;;9.63;;
6426;SDS011;3246;42.664;23.308;2022-12-18T05:05:36;14.63;;;9.27;;
6426;SDS011;3246;42.664;23.308;2022-12-18T05:08:03;16.07;;;11.90;;
6426;SDS011;3246;42.664;23.308;2022-12-18T05:10:29;14.10;;;10.47;;
6426;SDS011;3246;42.664;23.308;2022-12-18T05:12:56;15.83;;;10.13;;
6426;SDS011;3246;42.664;23.308;2022-12-18T05:15:26;15.07;;;10.13;;
6426;SDS011;3246;42.664;23.308;2022-12-18T05:17:54;14.23;;;10.90;;
6426;SDS011;3246;42.664;23.308;2022-12-18T05:20:20;14.43;;;9.80;;
6426;SDS011;3246;42.664;23.308;2022-12-18T05:22:47;15.40;;;9.87;;
6426;SDS011;3246;42.664;23.308;2022-12-18T05:25:13;10.40;;;8.97;;
6426;SDS011;3246;42.664;23.308;2022-12-18T05:27:40;13.97;;;10.10;;
6426;SDS011;3246;42.664;23.308;2022-12-18T05:30:07;13.53;;;10.30;;
6426;SDS011;3246;42.664;23.308;2022-12-18T05:32:34;14.80;;;10.20;;
6426;SDS011;3246;42.664;23.308;2022-12-18T05:35:02;14.83;;;10.33;;
6426;SDS011;3246;42.664;23.308;2022-12-18T05:37:28;30.43;;;17.03;;
6426;SDS011;3246;42.664;23.308;2022-12-18T05:39:55;13.03;;;9.63;;
6426;SDS011;3246;42.664;23.308;2022-12-18T05:42:21;12.63;;;10.63;;
6426;SDS011;3246;42.664;23.308;2022-12-18T05:44:47;12.33;;;9.73;;
6426;SDS011;3246;42.664;23.308;2022-12-18T05:47:14;12.40;;;9.33;;
6426;SDS011;3246;42.664;23.308;2022-12-18T05:49:40;20.20;;;11.70;;
6426;SDS011;3246;42.664;23.308;2022-12-18T05:52:08;17.98;;;11.80;;
6426;SDS011;3246;42.664;23.308;2022-12-18T05:54:35;20.47;;;12.57;;
6426;SDS011;3246;42.664;23.308;2022-12-18T05:57:01;19.27;;;12.37;;
6426;SDS011;3246;42.664;23.308;2022-12-18T05:59:28;16.20;;;12.27;;
6426;SDS011;3246;42.664;23.308;2022-12-18T06:01:54;17.67;;;10.57;;
6426;SDS011;3246;42.664;23.308;2022-12-18T06:04:21;16.07;;;11.93;;
6426;SDS011;3246;42.664;23.308;2022-12-18T06:06:47;19.03;;;11.83;;
6426;SDS011;3246;42.664;23.308;2022-12-18T06:09:15;15.03;;;12.03;;
6426;SDS011;3246;42.664;23.308;2022-12-18T06:11:41;14.57;;;10.40;;
6426;SDS011;3246;42.664;23.308;2022-12-18T06:14:08;14.03;;;10.33;;
6426;SDS011;3246;42.664;23.308;2022-12-18T06:16:35;19.43;;;12.23;;
6426;SDS011;3246;42.664;23.308;2022-12-18T06:19:03;17.43;;;10.17;;
6426;SDS011;3246;42.664;23.308;2022-12-18T06:21:30;18.90;;;11.33;;
6426;SDS011;3246;42.664;23.308;2022-12-18T06:23:57;19.70;;;11.70;;
6426;SDS011;3246;42.664;23.308;2022-12-18T06:26:25;25.07;;;12.47;;
6426;SDS011;3246;42.664;23.308;2022-12-18T06:28:51;16.37;;;11.10;;
6426;SDS011;3246;42.664;23.308;2022-12-18T06:31:18;18.10;;;12.07;;
6426;SDS011;3246;42.664;23.308;2022-12-18T06:33:44;16.50;;;12.60;;
6426;SDS011;3246;42.664;23.308;2022-12-18T06:36:11;18.47;;;12.90;;
6426;SDS011;3246;42.664;23.308;2022-12-18T06:38:41;15.77;;;11.50;;
6426;SDS011;3246;42.664;23.308;2022-12-18T06:41:07;15.87;;;11.27;;
6426;SDS011;3246;42.664;23.308;2022-12-18T06:43:35;17.50;;;11.00;;
6426;SDS011;3246;42.664;23.308;2022-12-18T06:46:03;16.87;;;11.67;;
6426;SDS011;3246;42.664;23.308;2022-12-18T06:48:30;13.77;;;10.53;;
6426;SDS011;3246;42.664;23.308;2022-12-18T06:50:56;14.80;;;10.50;;
6426;SDS011;3246;42.664;23.308;2022-12-18T06:53:23;16.60;;;11.33;;
6426;SDS011;3246;42.664;23.308;2022-12-18T06:55:50;18.47;;;11.87;;
6426;SDS011;3246;42.664;23.308;2022-12-18T06:58:16;10.73;;;9.57;;
6426;SDS011;3246;42.664;23.308;2022-12-18T07:00:44;21.13;;;11.97;;
6426;SDS011;3246;42.664;23.308;2022-12-18T07:03:11;16.83;;;10.50;;
6426;SDS011;3246;42.664;23.308;2022-12-18T07:05:39;17.13;;;11.47;;
6426;SDS011;3246;42.664;23.308;2022-12-18T07:08:05;16.30;;;10.10;;
6426;SDS011;3246;42.664;23.308;2022-12-18T07:10:32;17.00;;;11.83;;
6426;SDS011;3246;42.664;23.308;2022-12-18T07:12:58;16.00;;;12.17;;
6426;SDS011;3246;42.664;23.308;2022-12-18T07:15:25;16.87;;;9.50;;
6426;SDS011;3246;42.664;23.308;2022-12-18T07:17:53;17.33;;;11.63;;
6426;SDS011;3246;42.664;23.308;2022-12-18T07:20:19;13.27;;;9.83;;
6426;SDS011;3246;42.664;23.308;2022-12-18T07:22:46;17.20;;;12.43;;
6426;SDS011;3246;42.664;23.308;2022-12-18T07:25:12;15.20;;;11.00;;
6426;SDS011;3246;42.664;23.308;2022-12-18T07:27:39;17.50;;;12.63;;
6426;SDS011;3246;42.664;23.308;2022-12-18T07:30:06;21.33;;;14.27;;
6426;SDS011;3246;42.664;23.308;2022-12-18T07:32:32;19.47;;;11.67;;
6426;SDS011;3246;42.664;23.308;2022-12-18T07:35:00;20.50;;;14.13;;
6426;SDS011;3246;42.664;23.308;2022-12-18T07:37:27;17.43;;;13.40;;
6426;SDS011;3246;42.664;23.308;2022-12-18T07:39:53;17.60;;;13.47;;
6426;SDS011;3246;42.664;23.308;2022-12-18T07:42:20;24.07;;;12.87;;
6426;SDS011;3246;42.664;23.308;2022-12-18T07:44:58;23.90;;;16.33;;
6426;SDS011;3246;42.664;23.308;2022-12-18T07:47:25;19.43;;;13.47;;
6426;SDS011;3246;42.664;23.308;2022-12-18T07:49:51;19.37;;;13.20;;
6426;SDS011;3246;42.664;23.308;2022-12-18T07:52:19;21.67;;;15.17;;
6426;SDS011;3246;42.664;23.308;2022-12-18T07:54:46;26.70;;;16.90;;
6426;SDS011;3246;42.664;23.308;2022-12-18T07:57:14;24.13;;;15.83;;
6426;SDS011;3246;42.664;23.308;2022-12-18T07:59:40;24.53;;;12.87;;
6426;SDS011;3246;42.664;23.308;2022-12-18T08:02:07;23.97;;;15.30;;
6426;SDS011;3246;42.664;23.308;2022-12-18T08:04:33;29.30;;;16.67;;
6426;SDS011;3246;42.664;23.308;2022-12-18T08:06:59;17.43;;;12.63;;
6426;SDS011;3246;42.664;23.308;2022-12-18T08:09:27;26.77;;;17.07;;
6426;SDS011;3246;42.664;23.308;2022-12-18T08:11:54;23.50;;;13.97;;
6426;SDS011;3246;42.664;23.308;2022-12-18T08:14:20;19.27;;;12.87;;
6426;SDS011;3246;42.664;23.308;2022-12-18T08:16:47;25.90;;;14.93;;
6426;SDS011;3246;42.664;23.308;2022-12-18T08:19:14;22.13;;;13.77;;
6426;SDS011;3246;42.664;23.308;2022-12-18T08:21:40;24.03;;;15.73;;
6426;SDS011;3246;42.664;23.308;2022-12-18T08:24:08;22.67;;;15.93;;
6426;SDS011;3246;42.664;23.308;2022-12-18T08:26:36;24.47;;;15.70;;
6426;SDS011;3246;42.664;23.308;2022-12-18T08:29:03;23.90;;;15.93;;
6426;SDS011;3246;42.664;23.308;2022-12-18T08:31:30;20.53;;;13.23;;
6426;SDS011;3246;42.664;23.308;2022-12-18T08:33:56;21.50;;;15.30;;
6426;SDS011;3246;42.664;23.308;2022-12-18T08:36:23;27.20;;;17.47;;
6426;SDS011;3246;42.664;23.308;2022-12-18T08:38:50;29.80;;;17.70;;
6426;SDS011;3246;42.664;23.308;2022-12-18T08:41:16;23.90;;;14.60;;
6426;SDS011;3246;42.664;23.308;2022-12-18T08:43:44;29.40;;;16.90;;
6426;SDS011;3246;42.664;23.308;2022-12-18T08:46:31;25.70;;;16.43;;
6426;SDS011;3246;42.664;23.308;2022-12-18T08:48:58;32.87;;;16.50;;
6426;SDS011;3246;42.664;23.308;2022-12-18T08:51:25;23.67;;;15.63;;
6426;SDS011;3246;42.664;23.308;2022-12-18T08:53:51;19.43;;;12.93;;
6426;SDS011;3246;42.664;23.308;2022-12-18T08:56:18;24.73;;;15.33;;
6426;SDS011;3246;42.664;23.308;2022-12-18T08:58:46;21.90;;;15.03;;
6426;SDS011;3246;42.664;23.308;2022-12-18T09:01:13;20.67;;;13.33;;
6426;SDS011;3246;42.664;23.308;2022-12-18T09:03:39;22.40;;;13.60;;
6426;SDS011;3246;42.664;23.308;2022-12-18T09:06:06;24.27;;;15.80;;
6426;SDS011;3246;42.664;23.308;2022-12-18T09:08:33;29.03;;;16.30;;
6426;SDS011;3246;42.664;23.308;2022-12-18T09:10:59;23.27;;;14.73;;
6426;SDS011;3246;42.664;23.308;2022-12-18T09:13:26;21.17;;;14.10;;
6426;SDS011;3246;42.664;23.308;2022-12-18T09:15:54;24.90;;;15.10;;
6426;SDS011;3246;42.664;23.308;2022-12-18T09:18:21;16.80;;;11.83;;
6426;SDS011;3246;42.664;23.308;2022-12-18T09:20:48;21.57;;;13.87;;
6426;SDS011;3246;42.664;23.308;2022-12-18T09:23:16;21.90;;;15.97;;
6426;SDS011;3246;42.664;23.308;2022-12-18T09:25:43;12.17;;;8.97;;
6426;SDS011;3246;42.664;23.308;2022-12-18T09:28:10;23.20;;;14.30;;
6426;SDS011;3246;42.664;23.308;2022-12-18T09:30:37;19.03;;;13.80;;
6426;SDS011;3246;42.664;23.308;2022-12-18T09:33:05;16.07;;;11.40;;
6426;SDS011;3246;42.664;23.308;2022-12-18T09:35:32;15.97;;;10.53;;
6426;SDS011;3246;42.664;23.308;2022-12-18T09:37:58;20.30;;;13.77;;
6426;SDS011;3246;42.664;23.308;2022-12-18T09:40:25;15.77;;;12.13;;
6426;SDS011;3246;42.664;23.308;2022-12-18T09:42:54;26.03;;;15.70;;
6426;SDS011;3246;42.664;23.308;2022-12-18T09:45:21;15.50;;;9.90;;
6426;SDS011;3246;42.664;23.308;2022-12-18T09:47:48;19.70;;;12.10;;
6426;SDS011;3246;42.664;23.308;2022-12-18T09:50:20;15.37;;;11.07;;
6426;SDS011;3246;42.664;23.308;2022-12-18T09:52:50;21.03;;;12.00;;
6426;SDS011;3246;42.664;23.308;2022-12-18T09:55:23;19.13;;;12.47;;
6426;SDS011;3246;42.664;23.308;2022-12-18T09:57:51;24.20;;;13.63;;
6426;SDS011;3246;42.664;23.308;2022-12-18T10:00:19;20.30;;;12.97;;
6426;SDS011;3246;42.664;23.308;2022-12-18T10:02:47;16.83;;;12.60;;
6426;SDS011;3246;42.664;23.308;2022-12-18T10:05:14;17.13;;;12.43;;
6426;SDS011;3246;42.664;23.308;2022-12-18T10:07:55;17.00;;;11.20;;
6426;SDS011;3246;42.664;23.308;2022-12-18T10:10:27;17.00;;;11.40;;
6426;SDS011;3246;42.664;23.308;2022-12-18T10:12:58;12.20;;;9.77;;
6426;SDS011;3246;42.664;23.308;2022-12-18T10:15:27;18.03;;;11.93;;
6426;SDS011;3246;42.664;23.308;2022-12-18T10:17:57;17.53;;;11.70;;
6426;SDS011;3246;42.664;23.308;2022-12-18T10:20:27;17.17;;;11.57;;
6426;SDS011;3246;42.664;23.308;2022-12-18T10:22:59;17.10;;;11.50;;
6426;SDS011;3246;42.664;23.308;2022-12-18T10:25:29;18.33;;;11.53;;
6426;SDS011;3246;42.664;23.308;2022-12-18T10:28:00;27.60;;;17.93;;
6426;SDS011;3246;42.664;23.308;2022-12-18T10:30:33;31.40;;;15.70;;
6426;SDS011;3246;42.664;23.308;2022-12-18T10:33:00;17.03;;;11.33;;
6426;SDS011;3246;42.664;23.308;2022-12-18T10:35:27;15.57;;;10.53;;
6426;SDS011;3246;42.664;23.308;2022-12-18T10:38:02;20.60;;;13.33;;
6426;SDS011;3246;42.664;23.308;2022-12-18T10:40:29;25.63;;;15.27;;
6426;SDS011;3246;42.664;23.308;2022-12-18T10:43:09;20.47;;;14.33;;
6426;SDS011;3246;42.664;23.308;2022-12-18T10:45:36;19.47;;;13.13;;
6426;SDS011;3246;42.664;23.308;2022-12-18T10:48:04;19.97;;;12.17;;
6426;SDS011;3246;42.664;23.308;2022-12-18T10:50:31;17.70;;;12.93;;
6426;SDS011;3246;42.664;23.308;2022-12-18T10:52:59;22.63;;;14.27;;
6426;SDS011;3246;42.664;23.308;2022-12-18T10:55:30;20.50;;;15.27;;
6426;SDS011;3246;42.664;23.308;2022-12-18T10:58:02;24.43;;;15.70;;
6426;SDS011;3246;42.664;23.308;2022-12-18T11:00:39;23.80;;;14.23;;
6426;SDS011;3246;42.664;23.308;2022-12-18T11:03:07;26.93;;;15.20;;
6426;SDS011;3246;42.664;23.308;2022-12-18T11:05:56;13.70;;;9.30;;
6426;SDS011;3246;42.664;23.308;2022-12-18T11:08:27;16.33;;;10.13;;
6426;SDS011;3246;42.664;23.308;2022-12-18T11:10:55;16.77;;;12.10;;
6426;SDS011;3246;42.664;23.308;2022-12-18T11:13:22;19.20;;;12.40;;
6426;SDS011;3246;42.664;23.308;2022-12-18T11:15:49;17.70;;;12.03;;
6426;SDS011;3246;42.664;23.308;2022-12-18T11:18:16;20.03;;;11.13;;
6426;SDS011;3246;42.664;23.308;2022-12-18T11:20:44;23.73;;;13.67;;
6426;SDS011;3246;42.664;23.308;2022-12-18T11:23:16;16.70;;;11.50;;
6426;SDS011;3246;42.664;23.308;2022-12-18T11:25:50;20.20;;;12.03;;
6426;SDS011;3246;42.664;23.308;2022-12-18T11:28:26;19.93;;;12.40;;
6426;SDS011;3246;42.664;23.308;2022-12-18T11:31:08;20.13;;;12.87;;
6426;SDS011;3246;42.664;23.308;2022-12-18T11:33:35;20.03;;;13.10;;
6426;SDS011;3246;42.664;23.308;2022-12-18T11:36:04;27.20;;;14.20;;
6426;SDS011;3246;42.664;23.308;2022-12-18T11:38:32;21.70;;;13.87;;
6426;SDS011;3246;42.664;23.308;2022-12-18T11:41:04;20.50;;;14.00;;
6426;SDS011;3246;42.664;23.308;2022-12-18T11:43:34;18.60;;;11.40;;
6426;SDS011;3246;42.664;23.308;2022-12-18T11:46:05;18.33;;;11.03;;
6426;SDS011;3246;42.664;23.308;2022-12-18T11:48:33;19.17;;;12.53;;
6426;SDS011;3246;42.664;23.308;2022-12-18T11:51:01;18.33;;;11.93;;
6426;SDS011;3246;42.664;23.308;2022-12-18T11:53:29;17.67;;;11.37;;
6426;SDS011;3246;42.664;23.308;2022-12-18T11:55:58;21.10;;;14.47;;
6426;SDS011;3246;42.664;23.308;2022-12-18T11:58:29;17.63;;;12.57;;
6426;SDS011;3246;42.664;23.308;2022-12-18T12:01:03;18.23;;;12.87;;
6426;SDS011;3246;42.664;23.308;2022-12-18T12:03:45;21.03;;;13.03;;
6426;SDS011;3246;42.664;23.308;2022-12-18T12:06:15;19.87;;;12.23;;
6426;SDS011;3246;42.664;23.308;2022-12-18T12:08:53;18.43;;;12.37;;
6426;SDS011;3246;42.664;23.308;2022-12-18T12:11:27;25.07;;;15.00;;
6426;SDS011;3246;42.664;23.308;2022-12-18T12:14:00;25.07;;;14.23;;
6426;SDS011;3246;42.664;23.308;2022-12-18T12:16:31;24.20;;;14.27;;
6426;SDS011;3246;42.664;23.308;2022-12-18T12:19:03;18.70;;;12.70;;
6426;SDS011;3246;42.664;23.308;2022-12-18T12:21:35;23.40;;;14.57;;
6426;SDS011;3246;42.664;23.308;2022-12-18T12:24:04;20.43;;;13.23;;
6426;SDS011;3246;42.664;23.308;2022-12-18T12:26:36;17.50;;;12.23;;
6426;SDS011;3246;42.664;23.308;2022-12-18T12:29:08;22.57;;;14.57;;
6426;SDS011;3246;42.664;23.308;2022-12-18T12:31:45;19.73;;;13.60;;
6426;SDS011;3246;42.664;23.308;2022-12-18T12:34:15;17.60;;;10.23;;
6426;SDS011;3246;42.664;23.308;2022-12-18T12:36:45;17.93;;;12.93;;
6426;SDS011;3246;42.664;23.308;2022-12-18T12:39:14;25.23;;;15.70;;
6426;SDS011;3246;42.664;23.308;2022-12-18T12:41:42;21.00;;;15.07;;
6426;SDS011;3246;42.664;23.308;2022-12-18T12:44:29;28.60;;;15.83;;
6426;SDS011;3246;42.664;23.308;2022-12-18T12:46:59;21.37;;;14.67;;
6426;SDS011;3246;42.664;23.308;2022-12-18T12:49:28;24.50;;;15.00;;
6426;SDS011;3246;42.664;23.308;2022-12-18T12:51:57;22.20;;;12.93;;
6426;SDS011;3246;42.664;23.308;2022-12-18T12:54:26;18.93;;;13.23;;
6426;SDS011;3246;42.664;23.308;2022-12-18T12:56:54;20.47;;;10.97;;
6426;SDS011;3246;42.664;23.308;2022-12-18T12:59:24;23.57;;;14.13;;
6426;SDS011;3246;42.664;23.308;2022-12-18T13:01:54;24.53;;;14.90;;
6426;SDS011;3246;42.664;23.308;2022-12-18T13:04:26;26.37;;;15.50;;
6426;SDS011;3246;42.664;23.308;2022-12-18T13:06:58;24.07;;;15.77;;
6426;SDS011;3246;42.664;23.308;2022-12-18T13:09:29;11.47;;;9.30;;
6426;SDS011;3246;42.664;23.308;2022-12-18T13:11:57;18.10;;;12.10;;
6426;SDS011;3246;42.664;23.308;2022-12-18T13:14:45;20.13;;;12.33;;
6426;SDS011;3246;42.664;23.308;2022-12-18T13:17:15;20.00;;;14.17;;
6426;SDS011;3246;42.664;23.308;2022-12-18T13:19:43;19.73;;;13.10;;
6426;SDS011;3246;42.664;23.308;2022-12-18T13:22:20;15.40;;;9.50;;
6426;SDS011;3246;42.664;23.308;2022-12-18T13:24:47;22.47;;;14.00;;
6426;SDS011;3246;42.664;23.308;2022-12-18T13:29:55;16.37;;;10.93;;
6426;SDS011;3246;42.664;23.308;2022-12-18T13:32:22;21.53;;;12.67;;
6426;SDS011;3246;42.664;23.308;2022-12-18T13:35:01;19.90;;;11.93;;
6426;SDS011;3246;42.664;23.308;2022-12-18T13:37:51;22.13;;;12.73;;
6426;SDS011;3246;42.664;23.308;2022-12-18T13:43:13;23.40;;;14.67;;
6426;SDS011;3246;42.664;23.308;2022-12-18T13:45:44;24.90;;;15.03;;
6426;SDS011;3246;42.664;23.308;2022-12-18T13:48:15;23.17;;;13.93;;
6426;SDS011;3246;42.664;23.308;2022-12-18T13:50:43;22.17;;;14.73;;
6426;SDS011;3246;42.664;23.308;2022-12-18T13:53:15;25.77;;;15.40;;
6426;SDS011;3246;42.664;23.308;2022-12-18T13:55:44;23.07;;;13.87;;
6426;SDS011;3246;42.664;23.308;2022-12-18T13:58:11;23.93;;;14.63;;
6426;SDS011;3246;42.664;23.308;2022-12-18T14:00:41;24.20;;;14.20;;
6426;SDS011;3246;42.664;23.308;2022-12-18T14:03:15;23.27;;;13.47;;
6426;SDS011;3246;42.664;23.308;2022-12-18T14:05:43;17.57;;;11.10;;
6426;SDS011;3246;42.664;23.308;2022-12-18T14:08:11;21.97;;;12.93;;
6426;SDS011;3246;42.664;23.308;2022-12-18T14:10:39;18.67;;;11.90;;
6426;SDS011;3246;42.664;23.308;2022-12-18T14:13:06;19.70;;;13.07;;
6426;SDS011;3246;42.664;23.308;2022-12-18T14:15:35;20.27;;;12.07;;
6426;SDS011;3246;42.664;23.308;2022-12-18T14:18:03;19.87;;;12.50;;
6426;SDS011;3246;42.664;23.308;2022-12-18T14:20:35;21.43;;;12.60;;
6426;SDS011;3246;42.664;23.308;2022-12-18T14:23:04;18.57;;;11.77;;
6426;SDS011;3246;42.664;23.308;2022-12-18T14:25:31;16.57;;;11.40;;
6426;SDS011;3246;42.664;23.308;2022-12-18T14:28:02;20.43;;;11.47;;
6426;SDS011;3246;42.664;23.308;2022-12-18T14:30:29;18.77;;;12.20;;
6426;SDS011;3246;42.664;23.308;2022-12-18T14:32:59;18.73;;;11.77;;
6426;SDS011;3246;42.664;23.308;2022-12-18T14:35:26;15.80;;;11.33;;
6426;SDS011;3246;42.664;23.308;2022-12-18T14:37:59;16.97;;;11.13;;
6426;SDS011;3246;42.664;23.308;2022-12-18T14:40:34;19.77;;;12.57;;
6426;SDS011;3246;42.664;23.308;2022-12-18T14:43:01;16.33;;;10.70;;
6426;SDS011;3246;42.664;23.308;2022-12-18T14:45:34;18.27;;;10.70;;
6426;SDS011;3246;42.664;23.308;2022-12-18T14:48:05;15.27;;;10.00;;
6426;SDS011;3246;42.664;23.308;2022-12-18T14:50:32;16.23;;;10.17;;
6426;SDS011;3246;42.664;23.308;2022-12-18T14:52:58;17.57;;;10.97;;
6426;SDS011;3246;42.664;23.308;2022-12-18T14:55:25;16.60;;;10.70;;
6426;SDS011;3246;42.664;23.308;2022-12-18T14:57:53;19.03;;;11.43;;
6426;SDS011;3246;42.664;23.308;2022-12-18T15:00:21;18.47;;;12.13;;